sensor_id;sensor_type;location;lat;lon;timestamp;temperature;humidity
22436;DHT22;11385;50.822;4.324;2022-08-21T00:00:00;18.90;99.90
22436;DHT22;11385;50.822;4.324;2022-08-21T00:02:28;18.80;99.90
22436;DHT22;11385;50.822;4.324;2022-08-21T00:04:55;18.90;99.90
22436;DHT22;11385;50.822;4.324;2022-08-21T00:07:22;18.90;99.90
22436;DHT22;11385;50.822;4.324;2022-08-21T00:09:48;18.80;99.90
22436;DHT22;11385;50.822;4.324;2022-08-21T00:12:15;18.70;99.90
22436;DHT22;11385;50.822;4.324;2022-08-21T00:14:41;18.70;99.90
22436;DHT22;11385;50.822;4.324;2022-08-21T00:17:08;18.60;99.90
22436;DHT22;11385;50.822;4.324;2022-08-21T00:19:35;18.60;99.90
22436;DHT22;11385;50.822;4.324;2022-08-21T00:22:01;18.60;99.90
22436;DHT22;11385;50.822;4.324;2022-08-21T00:24:28;18.70;99.90
22436;DHT22;11385;50.822;4.324;2022-08-21T00:26:55;18.60;99.90
22436;DHT22;11385;50.822;4.324;2022-08-21T00:29:22;18.60;99.90
22436;DHT22;11385;50.822;4.324;2022-08-21T00:31:48;18.50;99.90
22436;DHT22;11385;50.822;4.324;2022-08-21T00:34:15;18.40;99.90
22436;DHT22;11385;50.822;4.324;2022-08-21T00:36:42;18.50;99.90
22436;DHT22;11385;50.822;4.324;2022-08-21T00:39:08;18.50;99.90
22436;DHT22;11385;50.822;4.324;2022-08-21T00:41:37;18.60;99.90
22436;DHT22;11385;50.822;4.324;2022-08-21T00:44:07;18.50;99.90
22436;DHT22;11385;50.822;4.324;2022-08-21T00:46:34;18.30;99.90
22436;DHT22;11385;50.822;4.324;2022-08-21T00:49:01;18.20;99.90
22436;DHT22;11385;50.822;4.324;2022-08-21T00:51:35;18.10;99.90
22436;DHT22;11385;50.822;4.324;2022-08-21T00:54:02;18.10;99.90
22436;DHT22;11385;50.822;4.324;2022-08-21T00:56:29;18.10;99.90
22436;DHT22;11385;50.822;4.324;2022-08-21T00:58:57;18.10;99.90
22436;DHT22;11385;50.822;4.324;2022-08-21T01:01:26;18.10;99.90
22436;DHT22;11385;50.822;4.324;2022-08-21T01:03:53;17.80;99.90
22436;DHT22;11385;50.822;4.324;2022-08-21T01:06:20;17.80;99.90
22436;DHT22;11385;50.822;4.324;2022-08-21T01:08:47;17.90;99.90
22436;DHT22;11385;50.822;4.324;2022-08-21T01:11:15;17.90;99.90
22436;DHT22;11385;50.822;4.324;2022-08-21T01:13:43;17.90;99.90
22436;DHT22;11385;50.822;4.324;2022-08-21T01:16:13;17.90;99.90
22436;DHT22;11385;50.822;4.324;2022-08-21T01:18:41;17.80;99.90
22436;DHT22;11385;50.822;4.324;2022-08-21T01:21:11;18.00;99.90
22436;DHT22;11385;50.822;4.324;2022-08-21T01:23:42;18.00;99.90
22436;DHT22;11385;50.822;4.324;2022-08-21T01:26:09;18.00;99.90
22436;DHT22;11385;50.822;4.324;2022-08-21T01:31:08;17.90;99.90
22436;DHT22;11385;50.822;4.324;2022-08-21T01:33:36;17.80;99.90
22436;DHT22;11385;50.822;4.324;2022-08-21T01:36:03;17.80;99.90
22436;DHT22;11385;50.822;4.324;2022-08-21T01:38:30;17.80;99.90
22436;DHT22;11385;50.822;4.324;2022-08-21T01:40:57;17.70;99.90
22436;DHT22;11385;50.822;4.324;2022-08-21T01:43:24;17.80;99.90
22436;DHT22;11385;50.822;4.324;2022-08-21T01:45:50;17.80;99.90
22436;DHT22;11385;50.822;4.324;2022-08-21T01:48:17;17.70;99.90
22436;DHT22;11385;50.822;4.324;2022-08-21T01:50:44;17.70;99.90
22436;DHT22;11385;50.822;4.324;2022-08-21T01:53:11;17.60;99.90
22436;DHT22;11385;50.822;4.324;2022-08-21T01:55:38;17.60;99.90
22436;DHT22;11385;50.822;4.324;2022-08-21T01:58:04;17.50;99.90
22436;DHT22;11385;50.822;4.324;2022-08-21T02:00:31;17.50;99.90
22436;DHT22;11385;50.822;4.324;2022-08-21T02:02:58;17.50;99.90
22436;DHT22;11385;50.822;4.324;2022-08-21T02:05:25;17.50;99.90
22436;DHT22;11385;50.822;4.324;2022-08-21T02:07:53;17.50;99.90
22436;DHT22;11385;50.822;4.324;2022-08-21T02:10:24;17.50;99.90
22436;DHT22;11385;50.822;4.324;2022-08-21T02:12:53;17.40;99.90
22436;DHT22;11385;50.822;4.324;2022-08-21T02:15:20;17.30;99.90
22436;DHT22;11385;50.822;4.324;2022-08-21T02:17:50;17.30;99.90
22436;DHT22;11385;50.822;4.324;2022-08-21T02:20:23;17.30;99.90
22436;DHT22;11385;50.822;4.324;2022-08-21T02:22:50;17.20;99.90
22436;DHT22;11385;50.822;4.324;2022-08-21T02:25:19;17.20;99.90
22436;DHT22;11385;50.822;4.324;2022-08-21T02:27:46;17.20;99.90
22436;DHT22;11385;50.822;4.324;2022-08-21T02:30:18;17.20;99.90
22436;DHT22;11385;50.822;4.324;2022-08-21T02:32:45;17.10;99.90
22436;DHT22;11385;50.822;4.324;2022-08-21T02:35:12;17.20;99.90
22436;DHT22;11385;50.822;4.324;2022-08-21T02:37:45;17.20;99.90
22436;DHT22;11385;50.822;4.324;2022-08-21T02:40:13;17.10;99.90
22436;DHT22;11385;50.822;4.324;2022-08-21T02:42:40;17.10;99.90
22436;DHT22;11385;50.822;4.324;2022-08-21T02:45:07;17.00;99.90
22436;DHT22;11385;50.822;4.324;2022-08-21T02:47:34;17.00;99.90
22436;DHT22;11385;50.822;4.324;2022-08-21T02:50:01;17.10;99.90
22436;DHT22;11385;50.822;4.324;2022-08-21T02:52:28;17.00;99.90
22436;DHT22;11385;50.822;4.324;2022-08-21T02:54:56;17.00;99.90
22436;DHT22;11385;50.822;4.324;2022-08-21T02:57:22;17.00;99.90
22436;DHT22;11385;50.822;4.324;2022-08-21T02:59:49;17.00;99.90
22436;DHT22;11385;50.822;4.324;2022-08-21T03:02:15;17.00;99.90
22436;DHT22;11385;50.822;4.324;2022-08-21T03:04:42;16.90;99.90
22436;DHT22;11385;50.822;4.324;2022-08-21T03:07:09;16.80;99.90
22436;DHT22;11385;50.822;4.324;2022-08-21T03:09:36;17.00;99.90
22436;DHT22;11385;50.822;4.324;2022-08-21T03:12:03;16.90;99.90
22436;DHT22;11385;50.822;4.324;2022-08-21T03:14:30;16.80;99.90
22436;DHT22;11385;50.822;4.324;2022-08-21T03:16:57;16.80;99.90
22436;DHT22;11385;50.822;4.324;2022-08-21T03:19:24;16.80;99.90
22436;DHT22;11385;50.822;4.324;2022-08-21T03:21:51;16.80;99.90
22436;DHT22;11385;50.822;4.324;2022-08-21T03:24:17;17.00;99.90
22436;DHT22;11385;50.822;4.324;2022-08-21T03:26:44;16.90;99.90
22436;DHT22;11385;50.822;4.324;2022-08-21T03:29:10;16.80;99.90
22436;DHT22;11385;50.822;4.324;2022-08-21T03:31:38;16.80;99.90
22436;DHT22;11385;50.822;4.324;2022-08-21T03:34:05;16.70;99.90
22436;DHT22;11385;50.822;4.324;2022-08-21T03:36:32;16.60;99.90
22436;DHT22;11385;50.822;4.324;2022-08-21T03:38:59;16.60;99.90
22436;DHT22;11385;50.822;4.324;2022-08-21T03:41:25;16.60;99.90
22436;DHT22;11385;50.822;4.324;2022-08-21T03:43:52;16.50;99.90
22436;DHT22;11385;50.822;4.324;2022-08-21T03:46:19;16.60;99.90
22436;DHT22;11385;50.822;4.324;2022-08-21T03:48:46;16.60;99.90
22436;DHT22;11385;50.822;4.324;2022-08-21T03:51:12;16.60;99.90
22436;DHT22;11385;50.822;4.324;2022-08-21T03:53:39;16.70;99.90
22436;DHT22;11385;50.822;4.324;2022-08-21T03:56:07;16.60;99.90
22436;DHT22;11385;50.822;4.324;2022-08-21T03:58:33;16.60;99.90
22436;DHT22;11385;50.822;4.324;2022-08-21T04:01:01;16.60;99.90
22436;DHT22;11385;50.822;4.324;2022-08-21T04:03:28;16.60;99.90
22436;DHT22;11385;50.822;4.324;2022-08-21T04:05:54;16.50;99.90
22436;DHT22;11385;50.822;4.324;2022-08-21T04:08:21;16.40;99.90
22436;DHT22;11385;50.822;4.324;2022-08-21T04:10:52;16.40;99.90
22436;DHT22;11385;50.822;4.324;2022-08-21T04:13:19;16.40;99.90
22436;DHT22;11385;50.822;4.324;2022-08-21T04:15:45;16.30;99.90
22436;DHT22;11385;50.822;4.324;2022-08-21T04:18:12;16.40;99.90
22436;DHT22;11385;50.822;4.324;2022-08-21T04:20:40;16.40;99.90
22436;DHT22;11385;50.822;4.324;2022-08-21T04:23:08;16.40;99.90
22436;DHT22;11385;50.822;4.324;2022-08-21T04:25:34;16.40;99.90
22436;DHT22;11385;50.822;4.324;2022-08-21T04:28:01;16.40;99.90
22436;DHT22;11385;50.822;4.324;2022-08-21T04:35:56;16.10;99.90
22436;DHT22;11385;50.822;4.324;2022-08-21T04:38:24;15.90;99.90
22436;DHT22;11385;50.822;4.324;2022-08-21T04:40:51;15.90;99.90
22436;DHT22;11385;50.822;4.324;2022-08-21T04:43:18;15.80;99.90
22436;DHT22;11385;50.822;4.324;2022-08-21T04:45:47;15.90;99.90
22436;DHT22;11385;50.822;4.324;2022-08-21T04:48:17;16.00;99.90
22436;DHT22;11385;50.822;4.324;2022-08-21T04:50:56;16.00;99.90
22436;DHT22;11385;50.822;4.324;2022-08-21T04:53:31;16.00;99.90
22436;DHT22;11385;50.822;4.324;2022-08-21T04:56:02;15.90;99.90
22436;DHT22;11385;50.822;4.324;2022-08-21T04:58:30;15.80;99.90
22436;DHT22;11385;50.822;4.324;2022-08-21T05:01:00;15.80;99.90
22436;DHT22;11385;50.822;4.324;2022-08-21T05:03:28;15.80;99.90
22436;DHT22;11385;50.822;4.324;2022-08-21T05:05:57;15.80;99.90
22436;DHT22;11385;50.822;4.324;2022-08-21T05:08:26;15.90;99.90
22436;DHT22;11385;50.822;4.324;2022-08-21T05:10:54;15.90;99.90
22436;DHT22;11385;50.822;4.324;2022-08-21T05:13:21;16.00;99.90
22436;DHT22;11385;50.822;4.324;2022-08-21T05:15:48;16.00;99.90
22436;DHT22;11385;50.822;4.324;2022-08-21T05:18:15;15.90;99.90
22436;DHT22;11385;50.822;4.324;2022-08-21T05:20:42;15.90;99.90
22436;DHT22;11385;50.822;4.324;2022-08-21T05:23:12;15.90;99.90
22436;DHT22;11385;50.822;4.324;2022-08-21T05:25:40;16.00;99.90
22436;DHT22;11385;50.822;4.324;2022-08-21T05:28:07;16.00;99.90
22436;DHT22;11385;50.822;4.324;2022-08-21T05:30:34;16.00;99.90
22436;DHT22;11385;50.822;4.324;2022-08-21T05:33:03;16.20;99.90
22436;DHT22;11385;50.822;4.324;2022-08-21T05:35:31;16.10;99.90
22436;DHT22;11385;50.822;4.324;2022-08-21T05:37:59;16.00;99.90
22436;DHT22;11385;50.822;4.324;2022-08-21T05:40:26;16.00;99.90
22436;DHT22;11385;50.822;4.324;2022-08-21T05:42:54;16.00;99.90
22436;DHT22;11385;50.822;4.324;2022-08-21T05:45:24;16.00;99.90
22436;DHT22;11385;50.822;4.324;2022-08-21T05:47:51;16.20;99.90
22436;DHT22;11385;50.822;4.324;2022-08-21T05:50:18;16.20;99.90
22436;DHT22;11385;50.822;4.324;2022-08-21T05:52:45;16.20;99.90
22436;DHT22;11385;50.822;4.324;2022-08-21T05:55:11;16.00;99.90
22436;DHT22;11385;50.822;4.324;2022-08-21T05:57:38;16.00;99.90
22436;DHT22;11385;50.822;4.324;2022-08-21T06:00:08;16.00;99.90
22436;DHT22;11385;50.822;4.324;2022-08-21T06:02:39;16.00;99.90
22436;DHT22;11385;50.822;4.324;2022-08-21T06:05:06;16.20;99.90
22436;DHT22;11385;50.822;4.324;2022-08-21T06:07:33;16.30;99.90
22436;DHT22;11385;50.822;4.324;2022-08-21T06:10:00;16.10;99.90
22436;DHT22;11385;50.822;4.324;2022-08-21T06:12:27;16.20;99.90
22436;DHT22;11385;50.822;4.324;2022-08-21T06:14:53;16.30;99.90
22436;DHT22;11385;50.822;4.324;2022-08-21T06:17:20;16.30;99.90
22436;DHT22;11385;50.822;4.324;2022-08-21T06:19:51;16.40;99.90
22436;DHT22;11385;50.822;4.324;2022-08-21T06:22:18;16.40;99.90
22436;DHT22;11385;50.822;4.324;2022-08-21T06:24:44;16.60;99.90
22436;DHT22;11385;50.822;4.324;2022-08-21T06:27:11;16.50;99.90
22436;DHT22;11385;50.822;4.324;2022-08-21T06:29:38;16.60;99.90
22436;DHT22;11385;50.822;4.324;2022-08-21T06:32:05;16.70;99.90
22436;DHT22;11385;50.822;4.324;2022-08-21T06:34:36;16.70;99.90
22436;DHT22;11385;50.822;4.324;2022-08-21T06:37:04;16.80;99.90
22436;DHT22;11385;50.822;4.324;2022-08-21T06:39:32;16.80;99.90
22436;DHT22;11385;50.822;4.324;2022-08-21T06:42:00;17.00;99.90
22436;DHT22;11385;50.822;4.324;2022-08-21T06:44:26;17.00;99.90
22436;DHT22;11385;50.822;4.324;2022-08-21T06:46:53;17.00;99.90
22436;DHT22;11385;50.822;4.324;2022-08-21T06:49:19;17.00;99.90
22436;DHT22;11385;50.822;4.324;2022-08-21T06:51:46;16.90;99.90
22436;DHT22;11385;50.822;4.324;2022-08-21T06:54:13;17.10;99.90
22436;DHT22;11385;50.822;4.324;2022-08-21T06:56:39;17.30;99.90
22436;DHT22;11385;50.822;4.324;2022-08-21T06:59:06;17.50;99.90
22436;DHT22;11385;50.822;4.324;2022-08-21T07:01:33;17.50;99.90
22436;DHT22;11385;50.822;4.324;2022-08-21T07:03:59;17.50;99.90
22436;DHT22;11385;50.822;4.324;2022-08-21T07:06:26;17.60;99.90
22436;DHT22;11385;50.822;4.324;2022-08-21T07:08:52;17.60;99.90
22436;DHT22;11385;50.822;4.324;2022-08-21T07:11:21;17.70;99.90
22436;DHT22;11385;50.822;4.324;2022-08-21T07:13:48;17.80;99.90
22436;DHT22;11385;50.822;4.324;2022-08-21T07:16:17;17.90;99.90
22436;DHT22;11385;50.822;4.324;2022-08-21T07:18:43;17.80;99.90
22436;DHT22;11385;50.822;4.324;2022-08-21T07:21:10;18.00;99.90
22436;DHT22;11385;50.822;4.324;2022-08-21T07:23:41;17.90;99.90
22436;DHT22;11385;50.822;4.324;2022-08-21T07:26:08;18.00;99.90
22436;DHT22;11385;50.822;4.324;2022-08-21T07:28:35;18.20;99.90
22436;DHT22;11385;50.822;4.324;2022-08-21T07:31:03;18.40;99.90
22436;DHT22;11385;50.822;4.324;2022-08-21T07:33:32;18.30;99.90
22436;DHT22;11385;50.822;4.324;2022-08-21T07:35:59;18.30;99.90
22436;DHT22;11385;50.822;4.324;2022-08-21T07:38:27;18.40;99.90
22436;DHT22;11385;50.822;4.324;2022-08-21T07:40:55;18.50;99.90
22436;DHT22;11385;50.822;4.324;2022-08-21T07:43:25;18.70;99.90
22436;DHT22;11385;50.822;4.324;2022-08-21T07:45:52;18.90;99.90
22436;DHT22;11385;50.822;4.324;2022-08-21T07:48:21;18.90;99.90
22436;DHT22;11385;50.822;4.324;2022-08-21T07:50:49;19.00;99.90
22436;DHT22;11385;50.822;4.324;2022-08-21T07:53:17;19.00;99.90
22436;DHT22;11385;50.822;4.324;2022-08-21T07:55:44;19.00;99.90
22436;DHT22;11385;50.822;4.324;2022-08-21T07:58:10;19.20;99.90
22436;DHT22;11385;50.822;4.324;2022-08-21T08:00:37;19.50;99.90
22436;DHT22;11385;50.822;4.324;2022-08-21T08:03:03;19.70;99.90
22436;DHT22;11385;50.822;4.324;2022-08-21T08:05:31;19.80;99.90
22436;DHT22;11385;50.822;4.324;2022-08-21T08:07:59;19.80;99.90
22436;DHT22;11385;50.822;4.324;2022-08-21T08:10:25;19.70;99.90
22436;DHT22;11385;50.822;4.324;2022-08-21T08:12:53;19.70;99.90
22436;DHT22;11385;50.822;4.324;2022-08-21T08:15:23;19.80;99.90
22436;DHT22;11385;50.822;4.324;2022-08-21T08:17:50;19.80;99.90
22436;DHT22;11385;50.822;4.324;2022-08-21T08:20:18;19.90;99.90
22436;DHT22;11385;50.822;4.324;2022-08-21T08:22:46;19.90;99.90
22436;DHT22;11385;50.822;4.324;2022-08-21T08:25:14;19.80;99.90
22436;DHT22;11385;50.822;4.324;2022-08-21T08:27:41;19.90;99.90
22436;DHT22;11385;50.822;4.324;2022-08-21T08:30:10;19.90;99.90
22436;DHT22;11385;50.822;4.324;2022-08-21T08:32:37;19.70;99.90
22436;DHT22;11385;50.822;4.324;2022-08-21T08:35:07;19.70;99.90
22436;DHT22;11385;50.822;4.324;2022-08-21T08:37:34;19.60;99.90
22436;DHT22;11385;50.822;4.324;2022-08-21T08:40:06;19.60;99.90
22436;DHT22;11385;50.822;4.324;2022-08-21T08:42:36;19.70;99.90
22436;DHT22;11385;50.822;4.324;2022-08-21T08:45:13;19.80;99.90
22436;DHT22;11385;50.822;4.324;2022-08-21T08:47:44;19.80;99.90
22436;DHT22;11385;50.822;4.324;2022-08-21T08:50:17;19.90;99.90
22436;DHT22;11385;50.822;4.324;2022-08-21T08:53:02;19.90;99.90
22436;DHT22;11385;50.822;4.324;2022-08-21T08:55:35;20.10;99.90
22436;DHT22;11385;50.822;4.324;2022-08-21T08:58:03;20.40;99.90
22436;DHT22;11385;50.822;4.324;2022-08-21T09:00:31;20.60;99.90
22436;DHT22;11385;50.822;4.324;2022-08-21T09:03:00;20.60;99.90
22436;DHT22;11385;50.822;4.324;2022-08-21T09:05:40;20.80;99.90
22436;DHT22;11385;50.822;4.324;2022-08-21T09:08:45;20.90;99.90
22436;DHT22;11385;50.822;4.324;2022-08-21T09:11:16;21.10;99.90
22436;DHT22;11385;50.822;4.324;2022-08-21T09:13:55;21.10;99.90
22436;DHT22;11385;50.822;4.324;2022-08-21T09:16:31;21.00;99.90
22436;DHT22;11385;50.822;4.324;2022-08-21T09:19:23;21.00;99.90
22436;DHT22;11385;50.822;4.324;2022-08-21T09:21:53;21.30;99.90
22436;DHT22;11385;50.822;4.324;2022-08-21T09:24:32;21.10;99.90
22436;DHT22;11385;50.822;4.324;2022-08-21T09:27:07;21.00;99.90
22436;DHT22;11385;50.822;4.324;2022-08-21T09:29:37;21.30;99.90
22436;DHT22;11385;50.822;4.324;2022-08-21T09:32:22;21.50;99.90
22436;DHT22;11385;50.822;4.324;2022-08-21T09:34:58;21.70;99.90
22436;DHT22;11385;50.822;4.324;2022-08-21T09:37:27;22.00;99.90
22436;DHT22;11385;50.822;4.324;2022-08-21T09:39:56;22.30;99.90
22436;DHT22;11385;50.822;4.324;2022-08-21T09:42:29;22.80;99.90
22436;DHT22;11385;50.822;4.324;2022-08-21T09:45:06;23.00;99.90
22436;DHT22;11385;50.822;4.324;2022-08-21T09:47:32;23.00;99.90
22436;DHT22;11385;50.822;4.324;2022-08-21T09:50:12;22.70;99.90
22436;DHT22;11385;50.822;4.324;2022-08-21T09:52:46;22.80;99.90
22436;DHT22;11385;50.822;4.324;2022-08-21T09:55:18;23.10;99.90
22436;DHT22;11385;50.822;4.324;2022-08-21T09:57:47;22.70;99.90
22436;DHT22;11385;50.822;4.324;2022-08-21T10:00:26;22.70;99.90
22436;DHT22;11385;50.822;4.324;2022-08-21T10:05:29;22.60;99.90
22436;DHT22;11385;50.822;4.324;2022-08-21T10:07:57;22.20;99.90
22436;DHT22;11385;50.822;4.324;2022-08-21T10:10:26;22.10;99.90
22436;DHT22;11385;50.822;4.324;2022-08-21T10:15:57;22.30;99.90
22436;DHT22;11385;50.822;4.324;2022-08-21T10:18:41;22.20;99.90
22436;DHT22;11385;50.822;4.324;2022-08-21T10:21:17;22.60;99.90
22436;DHT22;11385;50.822;4.324;2022-08-21T10:23:51;22.80;99.90
22436;DHT22;11385;50.822;4.324;2022-08-21T10:29:37;23.30;99.90
22436;DHT22;11385;50.822;4.324;2022-08-21T10:32:30;23.20;99.90
22436;DHT22;11385;50.822;4.324;2022-08-21T10:35:24;23.40;99.90
22436;DHT22;11385;50.822;4.324;2022-08-21T10:38:24;23.20;99.90
22436;DHT22;11385;50.822;4.324;2022-08-21T10:40:58;22.70;99.90
22436;DHT22;11385;50.822;4.324;2022-08-21T10:43:45;22.70;99.90
22436;DHT22;11385;50.822;4.324;2022-08-21T10:48:54;23.00;99.90
22436;DHT22;11385;50.822;4.324;2022-08-21T10:51:34;23.30;99.90
22436;DHT22;11385;50.822;4.324;2022-08-21T10:54:05;23.70;99.90
22436;DHT22;11385;50.822;4.324;2022-08-21T10:56:35;23.70;99.90
22436;DHT22;11385;50.822;4.324;2022-08-21T10:59:42;23.60;99.90
22436;DHT22;11385;50.822;4.324;2022-08-21T11:02:02;23.40;99.90
22436;DHT22;11385;50.822;4.324;2022-08-21T11:04:55;22.80;99.90
22436;DHT22;11385;50.822;4.324;2022-08-21T11:07:45;23.10;99.90
22436;DHT22;11385;50.822;4.324;2022-08-21T11:10:20;23.10;99.90
22436;DHT22;11385;50.822;4.324;2022-08-21T11:12:52;23.40;99.90
22436;DHT22;11385;50.822;4.324;2022-08-21T11:15:25;23.70;99.90
22436;DHT22;11385;50.822;4.324;2022-08-21T11:17:57;23.60;99.90
22436;DHT22;11385;50.822;4.324;2022-08-21T11:20:28;23.30;99.90
22436;DHT22;11385;50.822;4.324;2022-08-21T11:22:54;23.70;99.90
22436;DHT22;11385;50.822;4.324;2022-08-21T11:25:27;24.10;99.90
22436;DHT22;11385;50.822;4.324;2022-08-21T11:28:00;24.50;99.90
22436;DHT22;11385;50.822;4.324;2022-08-21T11:30:32;24.30;99.90
22436;DHT22;11385;50.822;4.324;2022-08-21T11:33:04;24.00;99.90
22436;DHT22;11385;50.822;4.324;2022-08-21T11:35:48;23.70;99.90
22436;DHT22;11385;50.822;4.324;2022-08-21T11:38:34;23.50;99.90
22436;DHT22;11385;50.822;4.324;2022-08-21T11:41:29;23.50;99.90
22436;DHT22;11385;50.822;4.324;2022-08-21T11:44:12;23.30;99.90
22436;DHT22;11385;50.822;4.324;2022-08-21T11:46:49;23.70;99.90
22436;DHT22;11385;50.822;4.324;2022-08-21T11:52:17;23.60;99.90
22436;DHT22;11385;50.822;4.324;2022-08-21T11:54:48;23.50;99.90
22436;DHT22;11385;50.822;4.324;2022-08-21T11:57:23;23.70;99.90
22436;DHT22;11385;50.822;4.324;2022-08-21T12:00:01;23.90;99.90
22436;DHT22;11385;50.822;4.324;2022-08-21T12:02:33;24.00;99.90
22436;DHT22;11385;50.822;4.324;2022-08-21T12:05:02;24.30;99.90
22436;DHT22;11385;50.822;4.324;2022-08-21T12:07:41;24.10;99.90
22436;DHT22;11385;50.822;4.324;2022-08-21T12:10:11;24.00;99.90
22436;DHT22;11385;50.822;4.324;2022-08-21T12:12:40;23.60;99.90
22436;DHT22;11385;50.822;4.324;2022-08-21T12:15:24;23.90;99.90
22436;DHT22;11385;50.822;4.324;2022-08-21T12:18:05;24.20;99.90
22436;DHT22;11385;50.822;4.324;2022-08-21T12:20:37;24.30;99.90
22436;DHT22;11385;50.822;4.324;2022-08-21T12:23:25;24.60;99.90
22436;DHT22;11385;50.822;4.324;2022-08-21T12:26:17;24.40;99.90
22436;DHT22;11385;50.822;4.324;2022-08-21T12:28:42;24.30;99.90
22436;DHT22;11385;50.822;4.324;2022-08-21T12:31:18;24.30;99.90
22436;DHT22;11385;50.822;4.324;2022-08-21T12:33:50;24.40;99.90
22436;DHT22;11385;50.822;4.324;2022-08-21T12:36:17;24.90;99.90
22436;DHT22;11385;50.822;4.324;2022-08-21T12:38:51;25.00;99.90
22436;DHT22;11385;50.822;4.324;2022-08-21T12:41:19;25.10;99.90
22436;DHT22;11385;50.822;4.324;2022-08-21T12:43:51;25.10;99.90
22436;DHT22;11385;50.822;4.324;2022-08-21T12:46:22;25.00;99.90
22436;DHT22;11385;50.822;4.324;2022-08-21T12:48:56;24.70;99.90
22436;DHT22;11385;50.822;4.324;2022-08-21T12:51:27;24.40;99.90
22436;DHT22;11385;50.822;4.324;2022-08-21T12:53:57;24.50;99.90
22436;DHT22;11385;50.822;4.324;2022-08-21T12:56:27;24.20;99.90
22436;DHT22;11385;50.822;4.324;2022-08-21T12:58:57;24.30;99.90
22436;DHT22;11385;50.822;4.324;2022-08-21T13:01:29;24.50;99.90
22436;DHT22;11385;50.822;4.324;2022-08-21T13:03:59;24.70;99.90
22436;DHT22;11385;50.822;4.324;2022-08-21T13:06:31;24.70;99.90
22436;DHT22;11385;50.822;4.324;2022-08-21T13:09:05;24.80;99.90
22436;DHT22;11385;50.822;4.324;2022-08-21T13:11:28;24.80;99.90
22436;DHT22;11385;50.822;4.324;2022-08-21T13:13:55;24.80;99.90
22436;DHT22;11385;50.822;4.324;2022-08-21T13:16:25;25.00;99.90
22436;DHT22;11385;50.822;4.324;2022-08-21T13:19:00;24.90;99.90
22436;DHT22;11385;50.822;4.324;2022-08-21T13:21:30;24.80;99.90
22436;DHT22;11385;50.822;4.324;2022-08-21T13:24:08;24.90;99.90
22436;DHT22;11385;50.822;4.324;2022-08-21T13:26:34;25.20;99.90
22436;DHT22;11385;50.822;4.324;2022-08-21T13:29:12;25.10;99.90
22436;DHT22;11385;50.822;4.324;2022-08-21T13:31:46;25.20;99.90
22436;DHT22;11385;50.822;4.324;2022-08-21T13:34:11;25.00;99.90
22436;DHT22;11385;50.822;4.324;2022-08-21T13:36:40;24.90;99.90
22436;DHT22;11385;50.822;4.324;2022-08-21T13:39:14;24.60;99.90
22436;DHT22;11385;50.822;4.324;2022-08-21T13:41:39;24.60;99.90
22436;DHT22;11385;50.822;4.324;2022-08-21T13:44:34;24.80;99.90
22436;DHT22;11385;50.822;4.324;2022-08-21T13:47:04;24.90;99.90
22436;DHT22;11385;50.822;4.324;2022-08-21T13:49:34;24.80;99.90
22436;DHT22;11385;50.822;4.324;2022-08-21T13:52:03;25.00;99.90
22436;DHT22;11385;50.822;4.324;2022-08-21T13:54:37;24.90;99.90
22436;DHT22;11385;50.822;4.324;2022-08-21T13:57:04;24.80;99.90
22436;DHT22;11385;50.822;4.324;2022-08-21T13:59:33;24.70;99.90
22436;DHT22;11385;50.822;4.324;2022-08-21T14:02:10;24.60;99.90
22436;DHT22;11385;50.822;4.324;2022-08-21T14:04:50;24.70;99.90
22436;DHT22;11385;50.822;4.324;2022-08-21T14:07:16;24.70;99.90
22436;DHT22;11385;50.822;4.324;2022-08-21T14:09:45;24.80;99.90
22436;DHT22;11385;50.822;4.324;2022-08-21T14:12:16;24.70;99.90
22436;DHT22;11385;50.822;4.324;2022-08-21T14:14:43;24.40;99.90
22436;DHT22;11385;50.822;4.324;2022-08-21T14:17:13;24.10;99.90
22436;DHT22;11385;50.822;4.324;2022-08-21T14:19:44;24.50;99.90
22436;DHT22;11385;50.822;4.324;2022-08-21T14:22:23;24.80;99.90
22436;DHT22;11385;50.822;4.324;2022-08-21T14:24:58;25.20;99.90
22436;DHT22;11385;50.822;4.324;2022-08-21T14:27:20;25.00;99.90
22436;DHT22;11385;50.822;4.324;2022-08-21T14:29:49;24.90;99.90
22436;DHT22;11385;50.822;4.324;2022-08-21T14:32:21;25.40;99.90
22436;DHT22;11385;50.822;4.324;2022-08-21T14:34:48;25.90;99.90
22436;DHT22;11385;50.822;4.324;2022-08-21T14:37:15;26.10;99.90
22436;DHT22;11385;50.822;4.324;2022-08-21T14:39:42;26.10;99.90
22436;DHT22;11385;50.822;4.324;2022-08-21T14:42:09;26.20;99.90
22436;DHT22;11385;50.822;4.324;2022-08-21T14:44:36;26.80;99.90
22436;DHT22;11385;50.822;4.324;2022-08-21T14:47:02;26.20;99.90
22436;DHT22;11385;50.822;4.324;2022-08-21T14:49:29;25.80;99.90
22436;DHT22;11385;50.822;4.324;2022-08-21T14:51:57;25.90;99.90
22436;DHT22;11385;50.822;4.324;2022-08-21T14:54:26;25.50;99.90
22436;DHT22;11385;50.822;4.324;2022-08-21T14:56:53;25.50;99.90
22436;DHT22;11385;50.822;4.324;2022-08-21T14:59:21;25.50;99.90
22436;DHT22;11385;50.822;4.324;2022-08-21T15:01:47;25.60;99.90
22436;DHT22;11385;50.822;4.324;2022-08-21T15:04:15;25.80;99.90
22436;DHT22;11385;50.822;4.324;2022-08-21T15:06:42;25.70;99.90
22436;DHT22;11385;50.822;4.324;2022-08-21T15:09:08;25.80;99.90
22436;DHT22;11385;50.822;4.324;2022-08-21T15:11:35;26.10;99.90
22436;DHT22;11385;50.822;4.324;2022-08-21T15:14:03;26.20;99.90
22436;DHT22;11385;50.822;4.324;2022-08-21T15:16:32;26.50;99.90
22436;DHT22;11385;50.822;4.324;2022-08-21T15:19:00;26.10;99.90
22436;DHT22;11385;50.822;4.324;2022-08-21T15:21:27;25.80;99.90
22436;DHT22;11385;50.822;4.324;2022-08-21T15:23:53;26.20;99.90
22436;DHT22;11385;50.822;4.324;2022-08-21T15:26:22;26.10;99.90
22436;DHT22;11385;50.822;4.324;2022-08-21T15:28:49;25.90;99.90
22436;DHT22;11385;50.822;4.324;2022-08-21T15:31:16;26.20;99.90
22436;DHT22;11385;50.822;4.324;2022-08-21T15:33:42;25.70;99.90
22436;DHT22;11385;50.822;4.324;2022-08-21T15:36:09;25.80;99.90
22436;DHT22;11385;50.822;4.324;2022-08-21T15:38:36;26.00;99.90
22436;DHT22;11385;50.822;4.324;2022-08-21T15:41:03;25.40;99.90
22436;DHT22;11385;50.822;4.324;2022-08-21T15:43:35;25.50;99.90
22436;DHT22;11385;50.822;4.324;2022-08-21T15:46:01;25.50;99.90
22436;DHT22;11385;50.822;4.324;2022-08-21T15:48:28;25.10;99.90
22436;DHT22;11385;50.822;4.324;2022-08-21T15:50:55;25.00;99.90
22436;DHT22;11385;50.822;4.324;2022-08-21T15:53:22;25.00;99.90
22436;DHT22;11385;50.822;4.324;2022-08-21T15:55:49;25.20;99.90
22436;DHT22;11385;50.822;4.324;2022-08-21T15:58:17;25.00;99.90
22436;DHT22;11385;50.822;4.324;2022-08-21T16:00:46;25.00;99.90
22436;DHT22;11385;50.822;4.324;2022-08-21T16:03:16;24.80;99.90
22436;DHT22;11385;50.822;4.324;2022-08-21T16:05:45;25.00;99.90
22436;DHT22;11385;50.822;4.324;2022-08-21T16:08:14;25.40;99.90